sensor_id;sensor_type;location;lat;lon;timestamp;P1;durP1;ratioP1;P2;durP2;ratioP2
30243;SDS011;64022;53.652;9.792;2023-02-23T00:00:41;55.67;;;34.10;;
30243;SDS011;64022;53.652;9.792;2023-02-23T00:03:08;51.72;;;33.13;;
30243;SDS011;64022;53.652;9.792;2023-02-23T00:05:34;53.67;;;31.90;;
30243;SDS011;64022;53.652;9.792;2023-02-23T00:08:01;52.47;;;33.28;;
30243;SDS011;64022;53.652;9.792;2023-02-23T00:10:26;51.50;;;32.60;;
30243;SDS011;64022;53.652;9.792;2023-02-23T00:12:56;51.35;;;33.00;;
30243;SDS011;64022;53.652;9.792;2023-02-23T00:15:25;53.58;;;32.65;;
30243;SDS011;64022;53.652;9.792;2023-02-23T00:17:55;54.97;;;33.45;;
30243;SDS011;64022;53.652;9.792;2023-02-23T00:20:22;54.53;;;33.33;;
30243;SDS011;64022;53.652;9.792;2023-02-23T00:22:55;47.90;;;31.15;;
30243;SDS011;64022;53.652;9.792;2023-02-23T00:25:21;50.45;;;32.22;;
30243;SDS011;64022;53.652;9.792;2023-02-23T00:30:14;50.40;;;30.98;;
30243;SDS011;64022;53.652;9.792;2023-02-23T00:32:42;54.35;;;32.95;;
30243;SDS011;64022;53.652;9.792;2023-02-23T00:35:09;51.50;;;32.70;;
30243;SDS011;64022;53.652;9.792;2023-02-23T00:37:40;54.95;;;33.33;;
30243;SDS011;64022;53.652;9.792;2023-02-23T00:40:08;53.47;;;33.63;;
30243;SDS011;64022;53.652;9.792;2023-02-23T00:42:38;50.10;;;31.42;;
30243;SDS011;64022;53.652;9.792;2023-02-23T00:45:04;51.00;;;32.03;;
30243;SDS011;64022;53.652;9.792;2023-02-23T00:47:36;51.10;;;31.13;;
30243;SDS011;64022;53.652;9.792;2023-02-23T00:50:03;48.40;;;30.30;;
30243;SDS011;64022;53.652;9.792;2023-02-23T00:52:29;49.75;;;30.92;;
30243;SDS011;64022;53.652;9.792;2023-02-23T00:54:55;49.43;;;31.50;;
30243;SDS011;64022;53.652;9.792;2023-02-23T00:57:21;48.23;;;30.43;;
30243;SDS011;64022;53.652;9.792;2023-02-23T00:59:47;50.15;;;31.63;;
30243;SDS011;64022;53.652;9.792;2023-02-23T01:02:13;45.97;;;30.40;;
30243;SDS011;64022;53.652;9.792;2023-02-23T01:04:38;49.60;;;31.10;;
30243;SDS011;64022;53.652;9.792;2023-02-23T01:07:04;50.10;;;31.77;;
30243;SDS011;64022;53.652;9.792;2023-02-23T01:09:30;49.55;;;30.45;;
30243;SDS011;64022;53.652;9.792;2023-02-23T01:11:56;53.55;;;32.88;;
30243;SDS011;64022;53.652;9.792;2023-02-23T01:14:25;48.85;;;30.92;;
30243;SDS011;64022;53.652;9.792;2023-02-23T01:16:52;50.63;;;31.65;;
30243;SDS011;64022;53.652;9.792;2023-02-23T01:19:17;47.60;;;30.47;;
30243;SDS011;64022;53.652;9.792;2023-02-23T01:21:43;46.90;;;30.30;;
30243;SDS011;64022;53.652;9.792;2023-02-23T01:24:09;46.30;;;29.70;;
30243;SDS011;64022;53.652;9.792;2023-02-23T01:29:04;46.58;;;28.83;;
30243;SDS011;64022;53.652;9.792;2023-02-23T01:31:34;46.88;;;29.70;;
30243;SDS011;64022;53.652;9.792;2023-02-23T01:34:02;44.42;;;29.02;;
30243;SDS011;64022;53.652;9.792;2023-02-23T01:36:30;45.47;;;28.60;;
30243;SDS011;64022;53.652;9.792;2023-02-23T01:38:58;47.97;;;29.80;;
30243;SDS011;64022;53.652;9.792;2023-02-23T01:41:25;48.93;;;30.53;;
30243;SDS011;64022;53.652;9.792;2023-02-23T01:46:38;47.13;;;29.33;;
30243;SDS011;64022;53.652;9.792;2023-02-23T01:49:09;47.28;;;29.73;;
30243;SDS011;64022;53.652;9.792;2023-02-23T01:52:02;43.33;;;29.10;;
30243;SDS011;64022;53.652;9.792;2023-02-23T01:54:31;42.17;;;29.10;;
30243;SDS011;64022;53.652;9.792;2023-02-23T01:57:00;45.10;;;29.75;;
30243;SDS011;64022;53.652;9.792;2023-02-23T02:02:01;44.10;;;27.20;;
30243;SDS011;64022;53.652;9.792;2023-02-23T02:04:29;44.60;;;28.48;;
30243;SDS011;64022;53.652;9.792;2023-02-23T02:07:02;44.60;;;27.70;;
30243;SDS011;64022;53.652;9.792;2023-02-23T02:09:28;44.47;;;28.77;;
30243;SDS011;64022;53.652;9.792;2023-02-23T02:12:01;43.97;;;29.73;;
30243;SDS011;64022;53.652;9.792;2023-02-23T02:14:32;44.58;;;28.33;;
30243;SDS011;64022;53.652;9.792;2023-02-23T02:39:04;43.22;;;27.02;;
30243;SDS011;64022;53.652;9.792;2023-02-23T02:44:41;43.03;;;26.55;;
30243;SDS011;64022;53.652;9.792;2023-02-23T02:47:28;40.80;;;26.52;;
30243;SDS011;64022;53.652;9.792;2023-02-23T02:50:15;41.70;;;26.48;;
30243;SDS011;64022;53.652;9.792;2023-02-23T02:52:48;39.85;;;26.00;;
30243;SDS011;64022;53.652;9.792;2023-02-23T02:55:26;38.40;;;24.60;;
30243;SDS011;64022;53.652;9.792;2023-02-23T02:57:58;40.15;;;25.35;;
30243;SDS011;64022;53.652;9.792;2023-02-23T03:06:18;39.60;;;25.85;;
30243;SDS011;64022;53.652;9.792;2023-02-23T03:25:02;42.92;;;25.45;;
30243;SDS011;64022;53.652;9.792;2023-02-23T03:28:02;39.20;;;25.23;;
30243;SDS011;64022;53.652;9.792;2023-02-23T03:31:15;38.47;;;23.75;;
30243;SDS011;64022;53.652;9.792;2023-02-23T03:34:32;35.85;;;24.02;;
30243;SDS011;64022;53.652;9.792;2023-02-23T03:37:25;37.00;;;24.13;;
30243;SDS011;64022;53.652;9.792;2023-02-23T03:40:24;37.03;;;24.30;;
30243;SDS011;64022;53.652;9.792;2023-02-23T03:43:12;35.33;;;23.70;;
30243;SDS011;64022;53.652;9.792;2023-02-23T03:46:01;39.25;;;24.92;;
30243;SDS011;64022;53.652;9.792;2023-02-23T03:48:47;37.10;;;24.10;;
30243;SDS011;64022;53.652;9.792;2023-02-23T03:51:34;36.53;;;24.83;;
30243;SDS011;64022;53.652;9.792;2023-02-23T03:54:24;33.33;;;23.10;;
30243;SDS011;64022;53.652;9.792;2023-02-23T03:57:15;34.70;;;23.33;;
30243;SDS011;64022;53.652;9.792;2023-02-23T04:02:50;32.72;;;21.30;;
30243;SDS011;64022;53.652;9.792;2023-02-23T04:05:38;36.50;;;23.40;;
30243;SDS011;64022;53.652;9.792;2023-02-23T04:08:24;31.85;;;21.30;;
30243;SDS011;64022;53.652;9.792;2023-02-23T04:14:30;34.35;;;23.08;;
30243;SDS011;64022;53.652;9.792;2023-02-23T04:17:02;33.28;;;22.20;;
30243;SDS011;64022;53.652;9.792;2023-02-23T04:19:29;35.08;;;22.90;;
30243;SDS011;64022;53.652;9.792;2023-02-23T04:21:55;36.60;;;22.83;;
30243;SDS011;64022;53.652;9.792;2023-02-23T04:24:20;33.50;;;22.37;;
30243;SDS011;64022;53.652;9.792;2023-02-23T04:26:46;32.83;;;22.17;;
30243;SDS011;64022;53.652;9.792;2023-02-23T04:29:11;34.80;;;22.30;;
30243;SDS011;64022;53.652;9.792;2023-02-23T04:31:37;36.77;;;23.40;;
30243;SDS011;64022;53.652;9.792;2023-02-23T04:34:03;35.23;;;21.57;;
30243;SDS011;64022;53.652;9.792;2023-02-23T04:36:29;33.33;;;22.20;;
30243;SDS011;64022;53.652;9.792;2023-02-23T04:38:55;34.63;;;22.13;;
30243;SDS011;64022;53.652;9.792;2023-02-23T04:41:20;34.23;;;23.10;;
30243;SDS011;64022;53.652;9.792;2023-02-23T04:43:46;32.47;;;21.10;;
30243;SDS011;64022;53.652;9.792;2023-02-23T04:46:11;32.23;;;21.83;;
30243;SDS011;64022;53.652;9.792;2023-02-23T04:48:37;30.53;;;21.13;;
30243;SDS011;64022;53.652;9.792;2023-02-23T04:51:03;33.63;;;22.17;;
30243;SDS011;64022;53.652;9.792;2023-02-23T04:53:28;35.00;;;21.90;;
30243;SDS011;64022;53.652;9.792;2023-02-23T04:55:54;31.30;;;21.13;;
30243;SDS011;64022;53.652;9.792;2023-02-23T04:58:19;32.97;;;22.60;;
30243;SDS011;64022;53.652;9.792;2023-02-23T05:00:45;39.23;;;21.63;;
30243;SDS011;64022;53.652;9.792;2023-02-23T05:03:11;30.13;;;20.60;;
30243;SDS011;64022;53.652;9.792;2023-02-23T05:05:37;31.30;;;20.50;;
30243;SDS011;64022;53.652;9.792;2023-02-23T05:08:03;31.60;;;20.60;;
30243;SDS011;64022;53.652;9.792;2023-02-23T05:10:29;38.47;;;20.20;;
30243;SDS011;64022;53.652;9.792;2023-02-23T05:12:54;31.60;;;21.00;;
30243;SDS011;64022;53.652;9.792;2023-02-23T05:15:21;37.33;;;21.25;;
30243;SDS011;64022;53.652;9.792;2023-02-23T05:17:46;30.93;;;20.40;;
30243;SDS011;64022;53.652;9.792;2023-02-23T05:20:12;34.23;;;21.63;;
30243;SDS011;64022;53.652;9.792;2023-02-23T05:22:38;32.07;;;20.70;;
30243;SDS011;64022;53.652;9.792;2023-02-23T05:25:04;28.77;;;19.83;;
30243;SDS011;64022;53.652;9.792;2023-02-23T05:27:30;32.80;;;21.08;;
30243;SDS011;64022;53.652;9.792;2023-02-23T05:29:56;30.40;;;20.93;;
30243;SDS011;64022;53.652;9.792;2023-02-23T05:32:22;29.77;;;19.77;;
30243;SDS011;64022;53.652;9.792;2023-02-23T05:34:48;29.17;;;18.97;;
30243;SDS011;64022;53.652;9.792;2023-02-23T05:37:13;29.43;;;19.13;;
30243;SDS011;64022;53.652;9.792;2023-02-23T05:39:39;38.53;;;21.87;;
30243;SDS011;64022;53.652;9.792;2023-02-23T05:42:05;32.00;;;20.77;;
30243;SDS011;64022;53.652;9.792;2023-02-23T05:44:30;29.20;;;20.37;;
30243;SDS011;64022;53.652;9.792;2023-02-23T05:46:56;30.13;;;20.30;;
30243;SDS011;64022;53.652;9.792;2023-02-23T05:49:22;31.37;;;20.37;;
30243;SDS011;64022;53.652;9.792;2023-02-23T05:51:47;31.17;;;18.20;;
30243;SDS011;64022;53.652;9.792;2023-02-23T05:54:13;30.40;;;20.73;;
30243;SDS011;64022;53.652;9.792;2023-02-23T05:56:39;36.23;;;21.07;;
30243;SDS011;64022;53.652;9.792;2023-02-23T05:59:05;30.27;;;19.48;;
30243;SDS011;64022;53.652;9.792;2023-02-23T06:01:31;29.10;;;19.13;;
30243;SDS011;64022;53.652;9.792;2023-02-23T06:03:57;27.58;;;19.35;;
30243;SDS011;64022;53.652;9.792;2023-02-23T06:06:23;29.30;;;18.70;;
30243;SDS011;64022;53.652;9.792;2023-02-23T06:08:49;28.00;;;19.58;;
30243;SDS011;64022;53.652;9.792;2023-02-23T06:11:16;27.80;;;18.67;;
30243;SDS011;64022;53.652;9.792;2023-02-23T06:13:41;27.60;;;19.13;;
30243;SDS011;64022;53.652;9.792;2023-02-23T06:16:07;27.07;;;18.00;;
30243;SDS011;64022;53.652;9.792;2023-02-23T06:18:32;28.37;;;19.30;;
30243;SDS011;64022;53.652;9.792;2023-02-23T06:20:59;28.87;;;18.23;;
30243;SDS011;64022;53.652;9.792;2023-02-23T06:23:26;26.15;;;17.77;;
30243;SDS011;64022;53.652;9.792;2023-02-23T06:25:53;30.27;;;19.10;;
30243;SDS011;64022;53.652;9.792;2023-02-23T06:28:18;30.43;;;19.40;;
30243;SDS011;64022;53.652;9.792;2023-02-23T06:30:44;27.67;;;18.83;;
30243;SDS011;64022;53.652;9.792;2023-02-23T06:33:10;33.50;;;19.63;;
30243;SDS011;64022;53.652;9.792;2023-02-23T06:35:36;33.83;;;20.53;;
30243;SDS011;64022;53.652;9.792;2023-02-23T06:38:02;34.30;;;19.13;;
30243;SDS011;64022;53.652;9.792;2023-02-23T06:40:29;37.55;;;19.42;;
30243;SDS011;64022;53.652;9.792;2023-02-23T06:42:54;35.57;;;20.00;;
30243;SDS011;64022;53.652;9.792;2023-02-23T06:45:20;36.43;;;19.47;;
30243;SDS011;64022;53.652;9.792;2023-02-23T06:47:46;37.37;;;19.57;;
30243;SDS011;64022;53.652;9.792;2023-02-23T06:50:12;36.07;;;19.13;;
30243;SDS011;64022;53.652;9.792;2023-02-23T06:52:38;34.50;;;19.35;;
30243;SDS011;64022;53.652;9.792;2023-02-23T06:55:04;40.13;;;21.17;;
30243;SDS011;64022;53.652;9.792;2023-02-23T06:57:30;35.90;;;19.40;;
30243;SDS011;64022;53.652;9.792;2023-02-23T06:59:56;41.23;;;20.17;;
30243;SDS011;64022;53.652;9.792;2023-02-23T07:02:22;40.50;;;20.77;;
30243;SDS011;64022;53.652;9.792;2023-02-23T07:04:47;38.87;;;20.30;;
30243;SDS011;64022;53.652;9.792;2023-02-23T07:07:13;42.30;;;21.43;;
30243;SDS011;64022;53.652;9.792;2023-02-23T07:09:39;40.90;;;20.50;;
30243;SDS011;64022;53.652;9.792;2023-02-23T07:12:06;80.45;;;29.73;;
30243;SDS011;64022;53.652;9.792;2023-02-23T07:14:33;55.58;;;25.55;;
30243;SDS011;64022;53.652;9.792;2023-02-23T07:16:58;52.33;;;23.47;;
30243;SDS011;64022;53.652;9.792;2023-02-23T07:19:24;52.93;;;25.57;;
30243;SDS011;64022;53.652;9.792;2023-02-23T07:21:50;52.60;;;24.60;;
30243;SDS011;64022;53.652;9.792;2023-02-23T07:24:15;57.40;;;24.50;;
30243;SDS011;64022;53.652;9.792;2023-02-23T07:26:41;64.10;;;26.67;;
30243;SDS011;64022;53.652;9.792;2023-02-23T07:29:09;63.33;;;25.15;;
30243;SDS011;64022;53.652;9.792;2023-02-23T07:31:36;66.15;;;27.70;;
30243;SDS011;64022;53.652;9.792;2023-02-23T07:34:02;60.50;;;26.53;;
30243;SDS011;64022;53.652;9.792;2023-02-23T07:36:28;61.50;;;27.67;;
30243;SDS011;64022;53.652;9.792;2023-02-23T07:38:53;66.67;;;28.33;;
30243;SDS011;64022;53.652;9.792;2023-02-23T07:41:19;59.47;;;28.57;;
30243;SDS011;64022;53.652;9.792;2023-02-23T07:43:45;68.03;;;28.27;;
30243;SDS011;64022;53.652;9.792;2023-02-23T07:46:10;66.30;;;28.57;;
30243;SDS011;64022;53.652;9.792;2023-02-23T07:48:39;59.97;;;26.92;;
30243;SDS011;64022;53.652;9.792;2023-02-23T07:51:07;55.65;;;27.20;;
30243;SDS011;64022;53.652;9.792;2023-02-23T07:53:35;60.47;;;28.02;;
30243;SDS011;64022;53.652;9.792;2023-02-23T07:56:01;62.90;;;26.92;;
30243;SDS011;64022;53.652;9.792;2023-02-23T07:58:28;61.78;;;27.80;;
30243;SDS011;64022;53.652;9.792;2023-02-23T08:00:55;66.82;;;27.25;;
30243;SDS011;64022;53.652;9.792;2023-02-23T08:03:21;53.60;;;26.70;;
30243;SDS011;64022;53.652;9.792;2023-02-23T08:05:46;60.60;;;29.53;;
30243;SDS011;64022;53.652;9.792;2023-02-23T08:08:12;55.93;;;26.83;;
30243;SDS011;64022;53.652;9.792;2023-02-23T08:10:38;60.80;;;27.07;;
30243;SDS011;64022;53.652;9.792;2023-02-23T08:13:04;55.90;;;26.30;;
30243;SDS011;64022;53.652;9.792;2023-02-23T08:15:29;53.27;;;26.67;;
30243;SDS011;64022;53.652;9.792;2023-02-23T08:17:55;57.83;;;26.27;;
30243;SDS011;64022;53.652;9.792;2023-02-23T08:20:21;62.55;;;26.95;;
30243;SDS011;64022;53.652;9.792;2023-02-23T08:22:51;54.50;;;25.73;;
30243;SDS011;64022;53.652;9.792;2023-02-23T08:25:17;61.83;;;27.85;;
30243;SDS011;64022;53.652;9.792;2023-02-23T08:27:43;54.40;;;26.70;;
30243;SDS011;64022;53.652;9.792;2023-02-23T08:30:09;57.73;;;25.77;;
30243;SDS011;64022;53.652;9.792;2023-02-23T08:32:35;57.58;;;25.80;;
30243;SDS011;64022;53.652;9.792;2023-02-23T08:35:01;53.47;;;24.63;;
30243;SDS011;64022;53.652;9.792;2023-02-23T08:37:29;54.80;;;26.55;;
30243;SDS011;64022;53.652;9.792;2023-02-23T08:39:55;58.33;;;26.70;;
30243;SDS011;64022;53.652;9.792;2023-02-23T08:42:21;54.70;;;25.52;;
30243;SDS011;64022;53.652;9.792;2023-02-23T08:44:47;55.80;;;25.13;;
30243;SDS011;64022;53.652;9.792;2023-02-23T08:47:13;59.53;;;26.60;;
30243;SDS011;64022;53.652;9.792;2023-02-23T08:49:40;57.80;;;26.60;;
30243;SDS011;64022;53.652;9.792;2023-02-23T08:52:06;49.63;;;24.20;;
30243;SDS011;64022;53.652;9.792;2023-02-23T08:54:32;48.70;;;24.93;;
30243;SDS011;64022;53.652;9.792;2023-02-23T08:56:57;60.27;;;25.20;;
30243;SDS011;64022;53.652;9.792;2023-02-23T08:59:23;50.53;;;25.00;;
30243;SDS011;64022;53.652;9.792;2023-02-23T09:01:49;55.90;;;26.25;;
30243;SDS011;64022;53.652;9.792;2023-02-23T09:04:15;50.67;;;24.60;;
30243;SDS011;64022;53.652;9.792;2023-02-23T09:09:07;44.97;;;23.58;;
30243;SDS011;64022;53.652;9.792;2023-02-23T09:11:33;47.07;;;24.47;;
30243;SDS011;64022;53.652;9.792;2023-02-23T09:13:59;51.87;;;24.43;;
30243;SDS011;64022;53.652;9.792;2023-02-23T09:16:24;49.90;;;24.30;;
30243;SDS011;64022;53.652;9.792;2023-02-23T09:18:50;53.10;;;25.37;;
30243;SDS011;64022;53.652;9.792;2023-02-23T09:21:16;49.00;;;24.33;;
30243;SDS011;64022;53.652;9.792;2023-02-23T09:23:45;48.15;;;23.83;;
30243;SDS011;64022;53.652;9.792;2023-02-23T09:26:12;49.90;;;24.20;;
30243;SDS011;64022;53.652;9.792;2023-02-23T09:28:37;49.07;;;23.40;;
30243;SDS011;64022;53.652;9.792;2023-02-23T09:31:05;56.40;;;25.55;;
30243;SDS011;64022;53.652;9.792;2023-02-23T09:33:32;45.67;;;24.95;;
30243;SDS011;64022;53.652;9.792;2023-02-23T09:35:58;49.37;;;23.83;;
30243;SDS011;64022;53.652;9.792;2023-02-23T09:38:23;49.70;;;24.00;;
30243;SDS011;64022;53.652;9.792;2023-02-23T09:40:51;49.60;;;24.83;;
30243;SDS011;64022;53.652;9.792;2023-02-23T09:48:54;45.15;;;24.20;;
30243;SDS011;64022;53.652;9.792;2023-02-23T09:51:22;48.03;;;23.08;;
30243;SDS011;64022;53.652;9.792;2023-02-23T09:53:51;46.33;;;22.50;;
30243;SDS011;64022;53.652;9.792;2023-02-23T09:56:21;45.83;;;23.13;;
30243;SDS011;64022;53.652;9.792;2023-02-23T09:59:00;45.22;;;23.92;;
30243;SDS011;64022;53.652;9.792;2023-02-23T10:04:19;40.47;;;21.33;;
30243;SDS011;64022;53.652;9.792;2023-02-23T10:07:03;43.33;;;21.45;;
30243;SDS011;64022;53.652;9.792;2023-02-23T10:12:32;44.55;;;21.17;;
30243;SDS011;64022;53.652;9.792;2023-02-23T10:15:26;42.58;;;21.98;;
30243;SDS011;64022;53.652;9.792;2023-02-23T10:20:59;46.60;;;21.60;;
30243;SDS011;64022;53.652;9.792;2023-02-23T10:23:35;44.35;;;21.75;;
30243;SDS011;64022;53.652;9.792;2023-02-23T10:26:07;46.45;;;22.67;;
30243;SDS011;64022;53.652;9.792;2023-02-23T10:28:40;48.75;;;22.60;;
30243;SDS011;64022;53.652;9.792;2023-02-23T10:31:19;50.33;;;23.67;;
30243;SDS011;64022;53.652;9.792;2023-02-23T10:33:48;45.78;;;22.38;;
30243;SDS011;64022;53.652;9.792;2023-02-23T10:36:17;43.42;;;21.40;;
30243;SDS011;64022;53.652;9.792;2023-02-23T10:38:49;41.85;;;21.95;;
30243;SDS011;64022;53.652;9.792;2023-02-23T10:41:15;46.13;;;24.00;;
30243;SDS011;64022;53.652;9.792;2023-02-23T10:43:40;52.83;;;23.90;;
30243;SDS011;64022;53.652;9.792;2023-02-23T10:46:06;44.10;;;21.93;;
30243;SDS011;64022;53.652;9.792;2023-02-23T10:48:41;43.83;;;22.85;;
30243;SDS011;64022;53.652;9.792;2023-02-23T10:51:17;40.95;;;22.45;;
30243;SDS011;64022;53.652;9.792;2023-02-23T10:53:45;42.45;;;21.80;;
30243;SDS011;64022;53.652;9.792;2023-02-23T10:56:12;49.50;;;23.03;;
30243;SDS011;64022;53.652;9.792;2023-02-23T10:58:40;45.83;;;21.52;;
30243;SDS011;64022;53.652;9.792;2023-02-23T11:01:15;42.63;;;22.23;;
30243;SDS011;64022;53.652;9.792;2023-02-23T11:04:15;48.03;;;22.48;;
30243;SDS011;64022;53.652;9.792;2023-02-23T11:07:08;40.97;;;22.17;;
30243;SDS011;64022;53.652;9.792;2023-02-23T11:09:41;48.75;;;23.17;;
30243;SDS011;64022;53.652;9.792;2023-02-23T11:14:46;43.72;;;23.35;;
30243;SDS011;64022;53.652;9.792;2023-02-23T11:17:31;53.75;;;23.23;;
30243;SDS011;64022;53.652;9.792;2023-02-23T11:20:00;45.08;;;23.23;;
30243;SDS011;64022;53.652;9.792;2023-02-23T11:22:28;48.63;;;25.45;;
30243;SDS011;64022;53.652;9.792;2023-02-23T11:24:55;50.50;;;23.67;;
30243;SDS011;64022;53.652;9.792;2023-02-23T11:27:22;48.17;;;24.13;;
30243;SDS011;64022;53.652;9.792;2023-02-23T11:29:50;48.22;;;25.15;;
30243;SDS011;64022;53.652;9.792;2023-02-23T11:32:19;45.50;;;23.45;;
30243;SDS011;64022;53.652;9.792;2023-02-23T11:34:46;49.97;;;25.13;;
30243;SDS011;64022;53.652;9.792;2023-02-23T11:37:32;47.72;;;24.35;;
30243;SDS011;64022;53.652;9.792;2023-02-23T11:39:59;45.83;;;24.03;;
30243;SDS011;64022;53.652;9.792;2023-02-23T11:42:26;52.30;;;25.88;;
30243;SDS011;64022;53.652;9.792;2023-02-23T11:45:10;50.78;;;23.70;;
30243;SDS011;64022;53.652;9.792;2023-02-23T11:47:43;51.10;;;23.73;;
30243;SDS011;64022;53.652;9.792;2023-02-23T11:50:19;50.88;;;25.48;;
30243;SDS011;64022;53.652;9.792;2023-02-23T11:55:45;48.20;;;23.67;;
30243;SDS011;64022;53.652;9.792;2023-02-23T11:58:21;47.15;;;23.15;;
30243;SDS011;64022;53.652;9.792;2023-02-23T12:00:56;51.05;;;25.50;;
30243;SDS011;64022;53.652;9.792;2023-02-23T12:03:27;53.03;;;25.27;;
30243;SDS011;64022;53.652;9.792;2023-02-23T12:05:56;54.45;;;24.23;;
30243;SDS011;64022;53.652;9.792;2023-02-23T12:08:33;47.38;;;25.05;;
30243;SDS011;64022;53.652;9.792;2023-02-23T12:11:10;43.47;;;22.70;;
30243;SDS011;64022;53.652;9.792;2023-02-23T12:13:53;47.72;;;24.33;;
30243;SDS011;64022;53.652;9.792;2023-02-23T12:16:26;46.17;;;23.95;;
30243;SDS011;64022;53.652;9.792;2023-02-23T12:24:51;49.17;;;24.08;;
30243;SDS011;64022;53.652;9.792;2023-02-23T12:27:38;48.20;;;23.23;;
30243;SDS011;64022;53.652;9.792;2023-02-23T12:32:41;48.58;;;23.80;;
30243;SDS011;64022;53.652;9.792;2023-02-23T12:35:37;46.58;;;23.40;;
30243;SDS011;64022;53.652;9.792;2023-02-23T12:40:28;49.35;;;23.08;;
30243;SDS011;64022;53.652;9.792;2023-02-23T12:48:17;46.90;;;22.80;;
30243;SDS011;64022;53.652;9.792;2023-02-23T12:50:50;50.58;;;23.25;;
30243;SDS011;64022;53.652;9.792;2023-02-23T13:01:55;45.88;;;20.60;;
30243;SDS011;64022;53.652;9.792;2023-02-23T13:07:17;45.35;;;23.02;;
30243;SDS011;64022;53.652;9.792;2023-02-23T13:12:49;48.15;;;22.38;;
30243;SDS011;64022;53.652;9.792;2023-02-23T13:21:57;45.67;;;21.85;;
30243;SDS011;64022;53.652;9.792;2023-02-23T13:24:26;43.95;;;22.10;;
30243;SDS011;64022;53.652;9.792;2023-02-23T13:27:18;46.30;;;22.52;;
30243;SDS011;64022;53.652;9.792;2023-02-23T13:29:50;43.85;;;22.67;;
30243;SDS011;64022;53.652;9.792;2023-02-23T13:32:22;46.25;;;22.17;;
30243;SDS011;64022;53.652;9.792;2023-02-23T13:34:55;45.95;;;22.45;;
30243;SDS011;64022;53.652;9.792;2023-02-23T13:42:51;40.15;;;20.98;;
30243;SDS011;64022;53.652;9.792;2023-02-23T13:48:56;41.50;;;21.55;;
30243;SDS011;64022;53.652;9.792;2023-02-23T13:54:32;42.08;;;19.52;;
30243;SDS011;64022;53.652;9.792;2023-02-23T13:57:01;39.63;;;20.70;;
30243;SDS011;64022;53.652;9.792;2023-02-23T13:59:30;39.72;;;21.33;;
30243;SDS011;64022;53.652;9.792;2023-02-23T14:02:05;41.88;;;21.13;;
30243;SDS011;64022;53.652;9.792;2023-02-23T14:05:14;40.65;;;21.48;;
30243;SDS011;64022;53.652;9.792;2023-02-23T14:07:58;38.05;;;20.27;;
30243;SDS011;64022;53.652;9.792;2023-02-23T14:10:36;38.03;;;20.00;;
30243;SDS011;64022;53.652;9.792;2023-02-23T14:20:49;39.80;;;21.17;;
30243;SDS011;64022;53.652;9.792;2023-02-23T14:28:23;38.60;;;20.58;;
30243;SDS011;64022;53.652;9.792;2023-02-23T14:31:24;34.83;;;18.85;;
30243;SDS011;64022;53.652;9.792;2023-02-23T14:41:42;39.88;;;20.02;;
30243;SDS011;64022;53.652;9.792;2023-02-23T14:44:16;38.65;;;20.23;;
30243;SDS011;64022;53.652;9.792;2023-02-23T14:46:53;37.00;;;19.17;;
30243;SDS011;64022;53.652;9.792;2023-02-23T14:49:22;35.22;;;18.98;;
30243;SDS011;64022;53.652;9.792;2023-02-23T14:51:52;36.63;;;19.83;;
30243;SDS011;64022;53.652;9.792;2023-02-23T14:54:24;35.67;;;19.92;;
30243;SDS011;64022;53.652;9.792;2023-02-23T14:56:58;39.10;;;19.73;;
30243;SDS011;64022;53.652;9.792;2023-02-23T14:59:26;37.60;;;19.85;;
30243;SDS011;64022;53.652;9.792;2023-02-23T15:01:55;37.25;;;20.80;;
30243;SDS011;64022;53.652;9.792;2023-02-23T15:04:24;33.72;;;18.25;;
30243;SDS011;64022;53.652;9.792;2023-02-23T15:06:54;34.42;;;19.30;;
30243;SDS011;64022;53.652;9.792;2023-02-23T15:09:35;33.30;;;19.20;;
30243;SDS011;64022;53.652;9.792;2023-02-23T15:12:11;35.35;;;20.38;;
30243;SDS011;64022;53.652;9.792;2023-02-23T15:14:51;38.25;;;19.10;;
30243;SDS011;64022;53.652;9.792;2023-02-23T15:17:20;37.47;;;20.85;;
30243;SDS011;64022;53.652;9.792;2023-02-23T15:19:48;38.13;;;19.40;;
30243;SDS011;64022;53.652;9.792;2023-02-23T15:22:21;46.03;;;20.67;;
30243;SDS011;64022;53.652;9.792;2023-02-23T15:25:16;34.30;;;18.23;;
30243;SDS011;64022;53.652;9.792;2023-02-23T15:27:44;37.63;;;19.70;;
30243;SDS011;64022;53.652;9.792;2023-02-23T15:32:57;35.90;;;20.25;;
30243;SDS011;64022;53.652;9.792;2023-02-23T15:35:24;39.60;;;19.95;;
30243;SDS011;64022;53.652;9.792;2023-02-23T15:37:50;40.40;;;22.27;;
30243;SDS011;64022;53.652;9.792;2023-02-23T15:40:18;38.22;;;20.77;;
30243;SDS011;64022;53.652;9.792;2023-02-23T15:42:48;37.75;;;20.30;;
30243;SDS011;64022;53.652;9.792;2023-02-23T15:45:22;39.65;;;20.75;;
30243;SDS011;64022;53.652;9.792;2023-02-23T15:47:53;43.78;;;22.98;;
30243;SDS011;64022;53.652;9.792;2023-02-23T15:50:26;35.55;;;20.98;;
30243;SDS011;64022;53.652;9.792;2023-02-23T15:52:59;41.35;;;20.33;;
30243;SDS011;64022;53.652;9.792;2023-02-23T15:55:30;43.30;;;21.52;;
30243;SDS011;64022;53.652;9.792;2023-02-23T15:58:01;37.53;;;21.50;;
30243;SDS011;64022;53.652;9.792;2023-02-23T16:00:42;39.20;;;22.00;;
30243;SDS011;64022;53.652;9.792;2023-02-23T16:03:31;45.13;;;21.38;;
30243;SDS011;64022;53.652;9.792;2023-02-23T16:08:27;39.60;;;21.77;;
30243;SDS011;64022;53.652;9.792;2023-02-23T16:11:14;43.38;;;22.13;;
30243;SDS011;64022;53.652;9.792;2023-02-23T16:13:43;39.17;;;21.17;;
30243;SDS011;64022;53.652;9.792;2023-02-23T16:16:10;40.10;;;21.25;;
30243;SDS011;64022;53.652;9.792;2023-02-23T16:18:43;39.47;;;20.30;;
30243;SDS011;64022;53.652;9.792;2023-02-23T16:21:16;40.17;;;21.75;;
30243;SDS011;64022;53.652;9.792;2023-02-23T16:23:46;38.10;;;21.70;;
30243;SDS011;64022;53.652;9.792;2023-02-23T16:28:50;42.08;;;22.27;;
30243;SDS011;64022;53.652;9.792;2023-02-23T16:31:24;35.78;;;20.60;;
30243;SDS011;64022;53.652;9.792;2023-02-23T16:34:22;42.10;;;20.42;;
30243;SDS011;64022;53.652;9.792;2023-02-23T16:36:53;39.13;;;21.48;;
30243;SDS011;64022;53.652;9.792;2023-02-23T16:39:21;43.85;;;22.05;;
30243;SDS011;64022;53.652;9.792;2023-02-23T16:41:50;37.97;;;20.65;;
30243;SDS011;64022;53.652;9.792;2023-02-23T16:44:19;34.17;;;20.10;;
30243;SDS011;64022;53.652;9.792;2023-02-23T16:49:26;36.88;;;19.77;;
30243;SDS011;64022;53.652;9.792;2023-02-23T16:51:57;38.15;;;19.90;;
30243;SDS011;64022;53.652;9.792;2023-02-23T16:54:23;35.25;;;20.00;;
30243;SDS011;64022;53.652;9.792;2023-02-23T16:56:49;41.40;;;20.90;;
30243;SDS011;64022;53.652;9.792;2023-02-23T16:59:19;35.20;;;19.55;;
30243;SDS011;64022;53.652;9.792;2023-02-23T17:01:46;41.88;;;20.45;;
30243;SDS011;64022;53.652;9.792;2023-02-23T17:06:43;37.55;;;19.08;;
30243;SDS011;64022;53.652;9.792;2023-02-23T17:09:09;36.47;;;20.05;;
30243;SDS011;64022;53.652;9.792;2023-02-23T17:11:36;34.67;;;20.48;;
30243;SDS011;64022;53.652;9.792;2023-02-23T17:14:01;43.23;;;21.27;;
30243;SDS011;64022;53.652;9.792;2023-02-23T17:16:27;92.70;;;28.80;;
30243;SDS011;64022;53.652;9.792;2023-02-23T17:18:52;66.73;;;25.07;;
30243;SDS011;64022;53.652;9.792;2023-02-23T17:21:18;65.77;;;25.87;;
30243;SDS011;64022;53.652;9.792;2023-02-23T17:23:48;51.47;;;24.27;;
30243;SDS011;64022;53.652;9.792;2023-02-23T17:26:19;55.35;;;26.90;;
30243;SDS011;64022;53.652;9.792;2023-02-23T17:28:47;57.88;;;25.85;;